LFLU METAR and TAF | Updated Today

LFLU METAR

Valence-Chabeuil Airport

Observation time: 23 min. ago

LFLU 061800Z AUTO 35013KT 9999 OVC046 06/01 Q1030

Need help? Read our tutorial on how to read METARs or read the parsed version below.

Valence-Chabeuil Airport (LFLU) METAR

  • Weather conditions on Mon, 06 Feb 2023 18:00:00 +0000 (23 min. ago):
  • Present conditions: Dry
  • Clouds: Overcast sky at 1402 meters
  • Visibility: Greater than 10 km
  • Wind: 350 degrees at 13 knots
  • Temperature: 6 celsius
  • Dew point: 1 celsius
  • Pressure: 1030 millibars
  • Remarks: None


Useful to know...

LFLU TAF

Valence-Chabeuil Airport

TAF not found.